Time;durP1;ratioP1;P1;durP2;ratioP2;P2;SDS_P1;SDS_P2;PMS_P1;PMS_P2;Temp;Humidity;BMP_temperature;BMP_pressure;BME280_temperature;BME280_humidity;BME280_pressure;Samples;Min_cycle;Max_cycle;Signal;HPM_P1;HPM_P2
2021/01/24 00:00:53;;;;;;;17.27;11.80;;;4.70;19.50;;;;;;5075136;28;20179;-66
2021/01/24 00:03:19;;;;;;;19.33;10.03;;;4.80;1.00;;;;;;5075779;28;20192;-66
2021/01/24 00:05:45;;;;;;;12.57;8.98;;;4.70;1.00;;;;;;5076230;28;20197;-66
2021/01/24 00:08:13;;;;;;;15.03;9.30;;;4.80;1.00;;;;;;5076129;28;20181;-67
2021/01/24 00:10:40;;;;;;;11.35;8.55;;;5.00;1.00;;;;;;5076034;28;20195;-66
2021/01/24 00:13:06;;;;;;;11.38;8.75;;;5.00;1.00;;;;;;5075886;28;20202;-65
2021/01/24 00:15:32;;;;;;;13.70;9.98;;;5.20;1.00;;;;;;5075813;28;20236;-65
2021/01/24 00:17:57;;;;;;;13.70;9.87;;;5.30;99.90;;;;;;5076178;28;20268;-65
2021/01/24 00:20:23;;;;;;;11.93;8.70;;;5.40;1.00;;;;;;5076055;28;20566;-65
2021/01/24 00:22:49;;;;;;;13.20;9.33;;;5.30;91.70;;;;;;5075840;28;20333;-65
2021/01/24 00:25:14;;;;;;;14.93;8.90;;;5.30;1.00;;;;;;5075636;28;20184;-65
2021/01/24 00:27:40;;;;;;;14.23;10.53;;;5.40;1.00;;;;;;5074890;28;20256;-65
2021/01/24 00:30:07;;;;;;;13.50;9.20;;;5.50;67.30;;;;;;5074900;28;20271;-65
2021/01/24 00:32:32;;;;;;;15.23;9.18;;;5.50;1.00;;;;;;5076277;28;20181;-65
2021/01/24 00:34:58;;;;;;;12.60;9.97;;;5.40;1.00;;;;;;5075224;28;20219;-66
2021/01/24 00:37:24;;;;;;;14.47;10.03;;;5.20;80.60;;;;;;5076318;28;20180;-65
2021/01/24 00:39:49;;;;;;;14.93;8.90;;;5.30;99.90;;;;;;5076409;28;20177;-65
2021/01/24 00:42:15;;;;;;;12.07;9.37;;;5.20;99.90;;;;;;5076944;28;20204;-65
2021/01/24 00:44:40;;;;;;;14.40;9.60;;;5.10;1.00;;;;;;5076613;28;20192;-65
2021/01/24 00:47:06;;;;;;;11.93;8.60;;;5.00;1.00;;;;;;5076879;28;20514;-65
2021/01/24 00:49:32;;;;;;;12.83;8.37;;;5.00;99.90;;;;;;5093351;28;20492;-67
2021/01/24 00:51:58;;;;;;;14.82;9.55;;;4.80;99.90;;;;;;5081031;28;20187;-67
2021/01/24 00:54:24;;;;;;;11.33;8.77;;;4.90;1.00;;;;;;5079758;28;20712;-65
2021/01/24 00:56:49;;;;;;;14.83;10.70;;;4.90;1.00;;;;;;5079478;28;20272;-65
2021/01/24 00:59:15;;;;;;;16.03;10.60;;;4.90;1.00;;;;;;5080087;28;20778;-65
2021/01/24 01:01:40;;;;;;;14.03;9.10;;;5.00;1.00;;;;;;5080100;28;20518;-65
2021/01/24 01:04:06;;;;;;;15.50;9.77;;;4.80;99.90;;;;;;5078667;28;20181;-65
2021/01/24 01:06:32;;;;;;;14.43;9.87;;;4.80;1.00;;;;;;5076471;28;20310;-65
2021/01/24 01:08:58;;;;;;;11.80;8.73;;;4.90;1.00;;;;;;5076476;28;20185;-65
2021/01/24 01:11:23;;;;;;;13.47;9.87;;;4.70;1.00;;;;;;5091317;28;20802;-65
2021/01/24 01:13:49;;;;;;;18.43;13.43;;;4.50;1.00;;;;;;5075445;28;20423;-65
2021/01/24 01:16:15;;;;;;;39.10;21.40;;;4.40;1.00;;;;;;5075443;28;20180;-65
2021/01/24 01:18:40;;;;;;;13.53;10.53;;;4.40;99.90;;;;;;5074737;28;20179;-65
2021/01/24 01:21:06;;;;;;;12.57;8.73;;;4.50;99.90;;;;;;5074698;28;20176;-65
2021/01/24 01:23:31;;;;;;;15.10;9.53;;;4.50;99.90;;;;;;5074496;28;20184;-65
2021/01/24 01:25:57;;;;;;;15.87;10.73;;;4.50;99.90;;;;;;5074844;28;20185;-65
2021/01/24 01:28:23;;;;;;;12.17;9.53;;;4.30;99.90;;;;;;5074807;28;20176;-65
2021/01/24 01:30:49;;;;;;;13.47;9.00;;;4.10;99.90;;;;;;5073626;28;20187;-63
2021/01/24 01:33:16;;;;;;;14.20;9.52;;;3.70;99.90;;;;;;5074357;28;20192;-65
2021/01/24 01:35:42;;;;;;;13.68;9.50;;;3.60;1.00;;;;;;5073724;28;20311;-65
2021/01/24 01:38:08;;;;;;;14.33;10.10;;;3.80;1.00;;;;;;5074772;28;20649;-68
2021/01/24 01:40:33;;;;;;;14.63;10.20;;;3.80;1.00;;;;;;5074794;28;20423;-68
2021/01/24 01:42:59;;;;;;;13.70;9.27;;;3.80;1.00;;;;;;5074647;28;20564;-69
2021/01/24 01:45:25;;;;;;;17.00;10.27;;;3.80;1.00;;;;;;5074211;28;20181;-69
2021/01/24 01:47:53;;;;;;;14.50;9.20;;;3.90;14.10;;;;;;5074680;28;20543;-69
2021/01/24 01:50:20;;;;;;;12.52;9.35;;;3.90;1.00;;;;;;5075161;28;20899;-68
2021/01/24 01:52:46;;;;;;;16.25;10.25;;;4.00;1.00;;;;;;5074202;28;20189;-68
2021/01/24 01:55:13;;;;;;;12.33;9.30;;;3.90;1.00;;;;;;5073885;28;20224;-67
2021/01/24 01:57:38;;;;;;;13.77;9.75;;;3.80;1.00;;;;;;5074187;28;20435;-67
2021/01/24 02:00:05;;;;;;;12.00;9.93;;;3.70;1.00;;;;;;5072973;28;20192;-67
2021/01/24 02:02:59;;;;;;;14.02;9.70;;;3.60;1.00;;;;;;5073784;28;20242;-67
2021/01/24 02:05:37;;;;;;;13.30;9.68;;;3.50;1.00;;;;;;5073622;28;20539;-65
2021/01/24 02:08:10;;;;;;;18.23;10.25;;;3.30;99.90;;;;;;5073821;28;20203;-67
2021/01/24 02:10:40;;;;;;;17.00;9.57;;;3.10;99.90;;;;;;5074045;28;20664;-67
2021/01/24 02:13:16;;;;;;;14.98;9.98;;;3.10;99.90;;;;;;5073842;28;20194;-66
2021/01/24 02:15:44;;;;;;;15.98;10.23;;;3.00;99.90;;;;;;5073684;28;20682;-66
2021/01/24 02:18:10;;;;;;;15.77;11.48;;;3.00;1.00;;;;;;5073683;28;20617;-69
2021/01/24 02:21:16;;;;;;;16.00;9.27;;;3.00;1.00;;;;;;5073627;28;20641;-68
2021/01/24 02:23:43;;;;;;;15.57;10.20;;;3.00;1.00;;;;;;5073569;28;20191;-68
2021/01/24 02:26:32;;;;;;;15.75;10.25;;;3.00;1.00;;;;;;5073536;28;20200;-67
2021/01/24 02:29:01;;;;;;;13.93;10.68;;;3.20;1.00;;;;;;5073558;28;20672;-68
2021/01/24 02:31:28;;;;;;;11.73;9.35;;;3.10;1.00;;;;;;5073642;28;20181;-68
2021/01/24 02:33:56;;;;;;;17.52;10.73;;;3.10;1.00;;;;;;5073232;28;20230;-68
2021/01/24 02:36:23;;;;;;;16.17;10.57;;;3.20;1.00;;;;;;5073480;28;20184;-69
2021/01/24 02:38:50;;;;;;;15.45;11.23;;;3.10;1.00;;;;;;5073514;28;20184;-69
2021/01/24 02:41:16;;;;;;;14.88;10.57;;;3.30;1.00;;;;;;5073598;28;20173;-67
2021/01/24 02:43:44;;;;;;;22.27;11.10;;;3.20;1.00;;;;;;5073150;28;20180;-68
2021/01/24 02:46:12;;;;;;;12.52;9.77;;;3.20;1.00;;;;;;5073479;28;20179;-68
2021/01/24 02:48:37;;;;;;;19.40;12.15;;;3.20;1.00;;;;;;5073686;28;20210;-68
2021/01/24 02:51:03;;;;;;;14.47;10.50;;;3.00;1.00;;;;;;5073326;28;20199;-67
2021/01/24 02:53:33;;;;;;;15.85;11.10;;;3.00;1.00;;;;;;5073084;28;20509;-67
2021/01/24 02:56:02;;;;;;;16.33;10.65;;;3.00;1.00;;;;;;5073166;28;20676;-66
2021/01/24 02:58:31;;;;;;;15.95;10.50;;;3.10;1.00;;;;;;5072071;28;20511;-68
2021/01/24 03:00:57;;;;;;;18.23;11.70;;;3.10;1.00;;;;;;5073225;28;20204;-68
2021/01/24 03:03:23;;;;;;;16.30;11.53;;;3.00;1.00;;;;;;5072877;28;20230;-67
2021/01/24 03:05:49;;;;;;;15.77;11.07;;;2.80;1.00;;;;;;5074591;28;20195;-68
2021/01/24 03:08:15;;;;;;;17.40;10.63;;;2.80;1.00;;;;;;5077235;28;20181;-68
2021/01/24 03:10:41;;;;;;;19.15;11.50;;;2.80;1.00;;;;;;5076379;28;21185;-67
2021/01/24 03:13:15;;;;;;;18.87;10.80;;;2.70;1.00;;;;;;5076862;28;20179;-66
2021/01/24 03:15:44;;;;;;;15.00;11.57;;;2.70;1.00;;;;;;5077029;28;20469;-66
2021/01/24 03:18:18;;;;;;;21.25;12.25;;;2.50;1.00;;;;;;5077169;28;20309;-66
2021/01/24 03:20:47;;;;;;;17.27;11.30;;;2.50;1.00;;;;;;5076974;28;20172;-66
2021/01/24 03:23:14;;;;;;;16.92;12.20;;;2.60;1.00;;;;;;5076640;28;20185;-66
2021/01/24 03:25:40;;;;;;;18.42;12.75;;;2.50;1.00;;;;;;5076865;28;20703;-68
2021/01/24 03:28:07;;;;;;;18.42;13.00;;;2.50;1.00;;;;;;5076957;28;20181;-67
2021/01/24 03:30:34;;;;;;;22.55;12.80;;;2.70;1.00;;;;;;5076892;28;20185;-67
2021/01/24 03:33:00;;;;;;;18.67;11.80;;;2.50;1.00;;;;;;5076717;28;20267;-68
2021/01/24 03:35:26;;;;;;;20.00;12.55;;;2.50;1.00;;;;;;5076263;28;20212;-68
2021/01/24 03:37:51;;;;;;;17.23;11.93;;;2.60;1.00;;;;;;5076567;28;20233;-68
2021/01/24 03:40:17;;;;;;;16.87;12.40;;;2.50;1.00;;;;;;5076731;28;20683;-68
2021/01/24 03:42:42;;;;;;;20.67;12.90;;;2.50;1.00;;;;;;5076664;28;20179;-68
2021/01/24 03:45:09;;;;;;;19.53;12.77;;;2.60;1.00;;;;;;5076366;28;20550;-66
2021/01/24 03:47:35;;;;;;;17.58;11.70;;;2.80;1.00;;;;;;5075577;28;20216;-66
2021/01/24 03:50:00;;;;;;;22.13;14.33;;;2.80;1.00;;;;;;5076450;28;20512;-66
2021/01/24 03:52:26;;;;;;;16.83;13.60;;;2.80;1.00;;;;;;5076543;28;20254;-66
2021/01/24 03:54:51;;;;;;;19.93;12.37;;;2.90;1.00;;;;;;5076141;28;20241;-66
2021/01/24 03:57:17;;;;;;;16.90;12.10;;;3.00;1.00;;;;;;5076367;28;20177;-66
2021/01/24 03:59:42;;;;;;;19.43;12.53;;;3.00;1.00;;;;;;5076355;28;20199;-66
2021/01/24 04:02:08;;;;;;;20.30;13.40;;;2.80;1.00;;;;;;5076237;28;20185;-65
2021/01/24 04:04:33;;;;;;;20.63;12.87;;;2.60;1.00;;;;;;5075850;28;20213;-64
2021/01/24 04:06:59;;;;;;;20.93;12.70;;;2.50;1.00;;;;;;5076207;28;20192;-64
2021/01/24 04:09:24;;;;;;;20.83;14.50;;;2.40;1.00;;;;;;5076594;28;20617;-64
2021/01/24 04:11:50;;;;;;;22.90;13.40;;;2.40;1.00;;;;;;5076627;28;20192;-63
2021/01/24 04:14:15;;;;;;;24.70;14.17;;;2.50;1.00;;;;;;5076630;28;20213;-63
2021/01/24 04:16:41;;;;;;;19.50;12.70;;;2.50;1.00;;;;;;5076513;28;20185;-63
2021/01/24 04:19:07;;;;;;;22.77;13.73;;;2.50;1.00;;;;;;5076246;28;20212;-64
2021/01/24 04:21:32;;;;;;;24.33;14.43;;;2.70;1.00;;;;;;5076042;28;20196;-64
2021/01/24 04:23:58;;;;;;;24.13;13.10;;;2.70;1.00;;;;;;5074819;28;20183;-64
2021/01/24 04:26:24;;;;;;;20.23;13.50;;;2.70;1.00;;;;;;5075976;28;20184;-66
2021/01/24 04:28:50;;;;;;;19.85;13.27;;;2.80;1.00;;;;;;5075995;28;20219;-64
2021/01/24 04:31:16;;;;;;;23.90;15.17;;;2.90;1.00;;;;;;5075788;28;20181;-66
2021/01/24 04:33:41;;;;;;;18.70;12.75;;;2.90;1.00;;;;;;5075437;28;20215;-66
2021/01/24 04:36:07;;;;;;;20.30;12.93;;;3.00;1.00;;;;;;5075526;28;20224;-66
2021/01/24 04:38:34;;;;;;;22.90;13.23;;;3.00;1.00;;;;;;5075809;28;20200;-66
2021/01/24 04:41:00;;;;;;;21.02;12.95;;;3.20;1.00;;;;;;5075521;28;20657;-66
2021/01/24 04:43:26;;;;;;;19.80;12.70;;;3.30;1.00;;;;;;5075394;28;20259;-66
2021/01/24 04:45:55;;;;;;;24.70;14.63;;;3.30;1.00;;;;;;5074448;28;20311;-65
2021/01/24 04:48:22;;;;;;;21.75;14.90;;;3.40;1.00;;;;;;5075405;28;20269;-65
2021/01/24 04:50:48;;;;;;;22.48;13.48;;;3.50;1.00;;;;;;5075281;28;20185;-65
2021/01/24 04:53:14;;;;;;;22.50;14.30;;;3.50;1.00;;;;;;5075262;28;20181;-65
2021/01/24 04:55:40;;;;;;;20.52;13.70;;;3.60;1.00;;;;;;5075189;28;20266;-65
2021/01/24 04:58:08;;;;;;;21.67;13.38;;;3.70;1.00;;;;;;5075227;28;20188;-69
2021/01/24 05:00:34;;;;;;;25.10;13.57;;;3.60;99.90;;;;;;5075120;28;20177;-68
2021/01/24 05:03:00;;;;;;;20.55;13.25;;;3.70;99.90;;;;;;5074900;28;20187;-68
2021/01/24 05:05:25;;;;;;;19.93;12.57;;;3.50;99.90;;;;;;5073897;28;20192;-68
2021/01/24 05:07:56;;;;;;;23.30;13.07;;;3.70;99.90;;;;;;5074039;28;20895;-68
2021/01/24 05:10:25;;;;;;;18.17;12.35;;;3.90;99.90;;;;;;5075071;28;20259;-66
2021/01/24 05:12:52;;;;;;;23.45;13.32;;;3.70;99.90;;;;;;5074847;28;20181;-66
2021/01/24 05:15:17;;;;;;;24.70;15.48;;;3.70;99.90;;;;;;5074639;28;20299;-67
2021/01/24 05:18:09;;;;;;;24.50;15.33;;;3.80;99.90;;;;;;5073748;28;20606;-66
2021/01/24 05:20:35;;;;;;;20.55;13.50;;;3.90;99.90;;;;;;5072775;28;20526;-65
2021/01/24 05:23:01;;;;;;;19.47;13.70;;;4.00;99.90;;;;;;5074569;28;20179;-66
2021/01/24 05:25:29;;;;;;;21.27;13.90;;;3.80;1.00;;;;;;5074612;28;20180;-66
2021/01/24 05:27:56;;;;;;;20.50;13.18;;;3.90;32.60;;;;;;5074000;28;20169;-67
2021/01/24 05:30:29;;;;;;;22.95;14.98;;;4.10;99.90;;;;;;5074598;28;20267;-68
2021/01/24 05:32:57;;;;;;;19.38;14.85;;;4.10;32.50;;;;;;5073537;28;20181;-68
2021/01/24 05:35:25;;;;;;;21.60;14.10;;;4.00;1.00;;;;;;5073213;28;20235;-68
2021/01/24 05:37:51;;;;;;;20.35;14.35;;;4.10;1.00;;;;;;5074479;28;20234;-65
2021/01/24 05:40:17;;;;;;;20.27;13.87;;;4.20;1.00;;;;;;5074463;28;20267;-65
2021/01/24 05:42:45;;;;;;;20.10;13.37;;;4.40;1.00;;;;;;5073305;28;20434;-65
2021/01/24 05:45:12;;;;;;;20.80;12.93;;;4.60;1.00;;;;;;5074093;28;20234;-68
2021/01/24 05:47:40;;;;;;;21.67;13.35;;;4.80;1.00;;;;;;5074311;28;20190;-66
2021/01/24 05:50:14;;;;;;;21.10;14.40;;;4.90;1.00;;;;;;5074345;28;20262;-66
2021/01/24 05:52:49;;;;;;;18.65;13.30;;;4.60;99.90;;;;;;5074326;28;20246;-68
2021/01/24 05:55:36;;;;;;;20.42;14.02;;;4.40;1.00;;;;;;5072921;28;20278;-65
2021/01/24 05:58:14;;;;;;;19.40;13.73;;;4.30;67.30;;;;;;5074293;28;20251;-66
2021/01/24 06:00:45;;;;;;;21.17;12.95;;;4.20;99.90;;;;;;5074106;28;20172;-66
2021/01/24 06:03:11;;;;;;;18.17;12.80;;;4.30;99.90;;;;;;5073684;28;20211;-67
2021/01/24 06:05:38;;;;;;;18.38;12.75;;;4.40;99.90;;;;;;5074290;28;20180;-66
2021/01/24 06:08:06;;;;;;;20.60;12.27;;;4.50;99.90;;;;;;5074027;28;20180;-67
2021/01/24 06:10:32;;;;;;;18.05;11.70;;;4.60;99.90;;;;;;5074014;28;20576;-67
2021/01/24 06:13:01;;;;;;;17.67;11.75;;;4.60;99.90;;;;;;5073869;28;20211;-67
2021/01/24 06:15:29;;;;;;;24.05;12.98;;;4.50;99.90;;;;;;5073549;28;20576;-67
2021/01/24 06:18:03;;;;;;;20.42;13.73;;;4.80;99.90;;;;;;5073905;28;20181;-68
2021/01/24 06:20:38;;;;;;;21.45;14.27;;;4.90;1.00;;;;;;5074194;28;20189;-68
2021/01/24 06:23:09;;;;;;;20.33;13.43;;;4.80;99.90;;;;;;5074010;28;20609;-68
2021/01/24 06:25:40;;;;;;;20.00;12.43;;;4.60;1.00;;;;;;5074128;28;20614;-68
2021/01/24 06:28:26;;;;;;;17.05;10.82;;;4.50;99.90;;;;;;5072848;28;20507;-69
2021/01/24 06:30:52;;;;;;;19.85;13.35;;;4.20;99.90;;;;;;5072658;28;20203;-68
2021/01/24 06:33:20;;;;;;;18.13;11.07;;;3.90;1.00;;;;;;5073457;28;20621;-68
2021/01/24 06:35:47;;;;;;;16.65;12.32;;;3.50;99.90;;;;;;5073584;28;20532;-67
2021/01/24 06:38:26;;;;;;;17.92;12.93;;;3.50;1.00;;;;;;5073407;28;20259;-67
2021/01/24 06:40:52;;;;;;;18.45;12.23;;;3.60;1.00;;;;;;5073690;28;20605;-67
2021/01/24 06:43:31;;;;;;;19.27;13.07;;;3.70;5.00;;;;;;5073407;28;20637;-67
2021/01/24 06:45:56;;;;;;;18.90;13.05;;;3.80;1.00;;;;;;5073581;28;20180;-67
2021/01/24 06:48:42;;;;;;;19.00;13.00;;;3.70;1.00;;;;;;5073525;28;20188;-67
2021/01/24 06:51:35;;;;;;;18.95;11.63;;;3.70;1.00;;;;;;5073600;28;20180;-65
2021/01/24 06:54:04;;;;;;;21.58;12.68;;;3.70;1.00;;;;;;5072176;28;20180;-65
2021/01/24 06:57:08;;;;;;;23.05;12.88;;;3.80;1.00;;;;;;5074037;28;20196;-65
2021/01/24 06:59:34;;;;;;;18.83;12.27;;;3.90;1.00;;;;;;5061093;28;20207;-66
2021/01/24 07:02:24;;;;;;;21.77;12.73;;;3.80;1.00;;;;;;5072118;28;20516;-65
2021/01/24 07:05:08;;;;;;;19.30;13.45;;;3.80;1.00;;;;;;5073205;28;20196;-66
2021/01/24 07:07:38;;;;;;;23.80;13.82;;;4.00;1.00;;;;;;5073578;28;20181;-66
2021/01/24 07:10:06;;;;;;;19.92;12.68;;;4.20;1.00;;;;;;5073491;28;20185;-66
2021/01/24 07:12:43;;;;;;;22.20;13.43;;;4.30;99.90;;;;;;5073198;28;20242;-66
2021/01/24 07:15:20;;;;;;;18.80;11.93;;;4.30;99.90;;;;;;5072298;28;20287;-66
2021/01/24 07:18:00;;;;;;;19.50;12.10;;;4.30;1.00;;;;;;5073156;28;20181;-66
2021/01/24 07:20:26;;;;;;;18.38;12.27;;;4.30;99.90;;;;;;5073346;28;20187;-66
2021/01/24 07:22:54;;;;;;;19.73;13.20;;;4.40;55.60;;;;;;5073223;28;20191;-66
2021/01/24 07:25:20;;;;;;;21.33;13.38;;;4.40;1.00;;;;;;5073052;28;20195;-66
2021/01/24 07:27:51;;;;;;;21.42;12.90;;;4.10;1.00;;;;;;5073273;28;20644;-65
2021/01/24 07:30:22;;;;;;;20.70;14.13;;;3.90;99.90;;;;;;5073144;28;20199;-65
2021/01/24 07:32:48;;;;;;;22.00;14.10;;;4.00;99.90;;;;;;5072497;28;20482;-66
2021/01/24 07:35:15;;;;;;;20.43;12.97;;;3.80;99.90;;;;;;5072525;28;20262;-66
2021/01/24 07:37:40;;;;;;;17.40;12.30;;;4.00;1.00;;;;;;5072883;28;20200;-66
2021/01/24 07:40:06;;;;;;;19.30;13.17;;;4.00;1.00;;;;;;5072906;28;20219;-66
2021/01/24 07:42:32;;;;;;;23.13;13.75;;;3.90;1.00;;;;;;5072766;28;20625;-66
2021/01/24 07:44:58;;;;;;;18.90;13.80;;;4.10;1.00;;;;;;5072609;28;20243;-66
2021/01/24 07:47:23;;;;;;;22.80;15.30;;;4.20;1.00;;;;;;5071708;28;20437;-66
2021/01/24 07:49:49;;;;;;;17.83;12.83;;;4.30;1.00;;;;;;5072971;28;20193;-66
2021/01/24 07:52:17;;;;;;;18.67;12.57;;;4.20;1.00;;;;;;5074818;28;20233;-66
2021/01/24 07:54:43;;;;;;;19.50;13.75;;;4.30;99.90;;;;;;5076403;28;20216;-67
2021/01/24 07:57:09;;;;;;;21.60;13.23;;;4.00;99.90;;;;;;5076063;28;20200;-66
2021/01/24 07:59:35;;;;;;;24.70;14.48;;;3.70;1.00;;;;;;5076406;28;20447;-67
2021/01/24 08:02:02;;;;;;;22.83;14.48;;;3.80;1.00;;;;;;5076150;28;20200;-67
2021/01/24 08:04:28;;;;;;;21.35;12.75;;;3.90;1.00;;;;;;5072598;28;20641;-67
2021/01/24 08:06:54;;;;;;;20.90;12.67;;;4.00;1.00;;;;;;5065262;28;20181;-67
2021/01/24 08:09:19;;;;;;;21.60;13.40;;;4.20;1.00;;;;;;5066568;28;20185;-67
2021/01/24 08:11:45;;;;;;;23.20;14.27;;;4.20;1.00;;;;;;5064668;28;20185;-67
2021/01/24 08:14:11;;;;;;;24.67;14.00;;;4.30;1.00;;;;;;5065031;28;20888;-67
2021/01/24 08:16:41;;;;;;;17.27;12.57;;;4.60;99.90;;;;;;5066255;28;20474;-69
2021/01/24 08:19:10;;;;;;;20.73;14.13;;;4.90;1.00;;;;;;5067048;28;20173;-68
2021/01/24 08:21:36;;;;;;;21.30;13.18;;;5.00;1.00;;;;;;5064701;28;20187;-68
2021/01/24 08:24:03;;;;;;;23.67;14.80;;;5.10;99.90;;;;;;5065084;28;20179;-69
2021/01/24 08:26:29;;;;;;;21.75;13.98;;;5.10;99.90;;;;;;5065776;28;20208;-69
2021/01/24 08:28:55;;;;;;;21.75;13.55;;;4.90;1.00;;;;;;5074865;28;20590;-66
2021/01/24 08:31:22;;;;;;;26.23;14.03;;;4.70;99.90;;;;;;5075762;28;20206;-68
2021/01/24 08:33:48;;;;;;;17.98;13.75;;;4.70;1.00;;;;;;5055941;28;20591;-68
2021/01/24 08:36:16;;;;;;;18.35;13.70;;;4.60;1.00;;;;;;5076479;28;20214;-66
2021/01/24 08:38:42;;;;;;;18.45;13.95;;;4.30;99.90;;;;;;5075788;28;20180;-63
2021/01/24 08:41:09;;;;;;;20.67;14.00;;;4.10;1.00;;;;;;5076029;28;20628;-65
2021/01/24 08:43:35;;;;;;;15.52;11.85;;;4.10;99.90;;;;;;5075698;28;20574;-66
2021/01/24 08:46:21;;;;;;;22.87;14.20;;;4.10;99.90;;;;;;5075763;28;20271;-66
2021/01/24 08:49:08;;;;;;;55.05;25.75;;;4.20;1.00;;;;;;5075915;28;20177;-64
2021/01/24 08:51:54;;;;;;;26.20;15.50;;;4.10;1.00;;;;;;5075410;28;20613;-65
2021/01/24 08:54:21;;;;;;;29.05;14.80;;;3.80;99.90;;;;;;5074478;28;20265;-64
2021/01/24 08:56:48;;;;;;;32.55;18.27;;;3.70;1.00;;;;;;5074803;28;20177;-61
2021/01/24 08:59:29;;;;;;;22.85;15.15;;;3.90;1.00;;;;;;5075307;28;20184;-62
2021/01/24 09:01:57;;;;;;;21.60;13.90;;;3.90;1.00;;;;;;5075491;28;20246;-61
2021/01/24 09:04:34;;;;;;;36.55;21.88;;;3.70;1.00;;;;;;5073897;28;20199;-63
2021/01/24 09:07:14;;;;;;;18.50;13.50;;;3.60;1.00;;;;;;5075733;28;20503;-64
2021/01/24 09:09:42;;;;;;;22.83;15.27;;;3.40;5.20;;;;;;5075282;28;20184;-63
2021/01/24 09:12:16;;;;;;;21.95;14.43;;;3.30;99.90;;;;;;5073889;28;20195;-64
2021/01/24 09:14:42;;;;;;;21.30;14.45;;;3.30;99.90;;;;;;5075070;28;20254;-62
2021/01/24 09:17:10;;;;;;;25.65;15.95;;;3.20;99.90;;;;;;5075508;28;20172;-65
2021/01/24 09:19:38;;;;;;;27.30;17.52;;;3.20;99.90;;;;;;5075232;28;20180;-66
2021/01/24 09:22:07;;;;;;;24.60;16.20;;;3.30;99.90;;;;;;5075043;28;20806;-62
2021/01/24 09:24:33;;;;;;;18.27;12.40;;;3.20;99.90;;;;;;5074851;28;20268;-66
2021/01/24 09:26:58;;;;;;;27.57;15.23;;;3.40;99.90;;;;;;5074524;28;20268;-66
2021/01/24 09:29:24;;;;;;;24.77;14.27;;;3.40;99.90;;;;;;5073402;28;20624;-66
2021/01/24 09:31:50;;;;;;;21.97;13.90;;;3.30;99.90;;;;;;5074350;28;20172;-65
2021/01/24 09:34:15;;;;;;;22.83;14.30;;;3.40;99.90;;;;;;5074305;28;20199;-66
2021/01/24 09:36:41;;;;;;;28.97;18.70;;;3.50;99.90;;;;;;5074223;28;20297;-66
2021/01/24 09:39:08;;;;;;;28.33;17.77;;;3.50;99.90;;;;;;5071442;28;20567;-65
2021/01/24 09:41:34;;;;;;;21.52;13.85;;;3.30;99.90;;;;;;5063029;28;20177;-65
2021/01/24 09:44:01;;;;;;;22.23;14.43;;;3.30;99.90;;;;;;5063830;28;20178;-65
2021/01/24 09:46:28;;;;;;;20.98;13.90;;;3.20;99.90;;;;;;5063493;28;20180;-65
2021/01/24 09:48:54;;;;;;;23.92;14.85;;;3.20;99.90;;;;;;5074456;28;20205;-65
2021/01/24 09:51:19;;;;;;;24.50;15.67;;;3.30;1.00;;;;;;5061851;28;20219;-64
2021/01/24 09:53:49;;;;;;;22.03;15.27;;;3.40;1.00;;;;;;5065066;28;20200;-63
2021/01/24 09:56:15;;;;;;;22.45;15.88;;;3.60;99.90;;;;;;5064016;28;20658;-65
2021/01/24 09:58:41;;;;;;;27.27;16.13;;;3.60;99.90;;;;;;5071193;28;20176;-65
2021/01/24 10:01:06;;;;;;;22.87;15.30;;;3.80;99.90;;;;;;5065733;28;20189;-66
2021/01/24 10:03:32;;;;;;;22.90;15.20;;;3.90;99.90;;;;;;5064372;28;20188;-66
2021/01/24 10:05:57;;;;;;;23.70;16.20;;;3.80;99.90;;;;;;5064124;28;20500;-66
2021/01/24 10:08:23;;;;;;;22.87;15.63;;;3.60;99.90;;;;;;5064530;28;20189;-64
2021/01/24 10:10:49;;;;;;;24.80;15.37;;;3.80;99.90;;;;;;5061533;28;20484;-62
2021/01/24 10:13:14;;;;;;;23.30;15.53;;;4.00;99.90;;;;;;5062316;28;20181;-64
2021/01/24 10:15:40;;;;;;;19.63;13.23;;;4.20;99.90;;;;;;5063388;28;20207;-63
2021/01/24 10:18:06;;;;;;;27.88;15.93;;;4.30;39.00;;;;;;5064605;28;20185;-64
2021/01/24 10:20:33;;;;;;;59.50;29.20;;;4.20;1.00;;;;;;5080560;28;20193;-64
2021/01/24 10:22:58;;;;;;;23.65;15.52;;;4.40;1.00;;;;;;5068549;28;20439;-67
2021/01/24 10:25:24;;;;;;;19.20;13.90;;;4.60;1.00;;;;;;5069346;28;20249;-65
2021/01/24 10:27:50;;;;;;;21.83;15.50;;;4.40;99.90;;;;;;5069910;28;20437;-64
2021/01/24 10:30:16;;;;;;;25.23;14.90;;;4.40;99.90;;;;;;5067761;28;20187;-64
2021/01/24 10:32:41;;;;;;;22.35;15.45;;;4.40;99.90;;;;;;5068710;28;20195;-66
2021/01/24 10:35:08;;;;;;;19.27;13.20;;;4.40;99.90;;;;;;5066030;28;20197;-62
2021/01/24 10:37:33;;;;;;;22.35;13.95;;;4.40;99.90;;;;;;5065997;28;20184;-63
2021/01/24 10:40:00;;;;;;;22.80;15.77;;;4.40;99.90;;;;;;5061611;28;20290;-63
2021/01/24 10:42:25;;;;;;;21.17;13.95;;;4.70;1.00;;;;;;5064816;28;20455;-65
2021/01/24 10:44:51;;;;;;;21.43;14.27;;;4.80;99.90;;;;;;5061951;28;20288;-63
2021/01/24 10:47:16;;;;;;;26.93;15.90;;;4.80;82.80;;;;;;5062599;28;20177;-63
2021/01/24 10:49:42;;;;;;;25.10;14.57;;;4.90;1.00;;;;;;5066403;28;20173;-62
2021/01/24 10:52:08;;;;;;;23.57;14.47;;;4.50;99.90;;;;;;5061644;28;20622;-61
2021/01/24 10:54:36;;;;;;;27.40;15.10;;;4.20;1.00;;;;;;5053047;28;20661;-61
2021/01/24 10:57:03;;;;;;;21.38;14.02;;;4.30;99.90;;;;;;5038518;28;20177;-63
2021/01/24 10:59:28;;;;;;;22.80;16.05;;;4.30;1.00;;;;;;5064916;28;20172;-63
2021/01/24 11:01:54;;;;;;;22.17;14.43;;;4.30;1.00;;;;;;5065790;28;20188;-66
2021/01/24 11:04:20;;;;;;;21.10;14.43;;;4.50;1.00;;;;;;5060610;28;20267;-65
2021/01/24 11:06:46;;;;;;;23.55;13.75;;;4.90;99.90;;;;;;5064088;28;20196;-67
2021/01/24 11:09:14;;;;;;;22.63;14.87;;;4.90;1.00;;;;;;5064721;28;20608;-68
2021/01/24 11:11:40;;;;;;;19.95;13.88;;;4.70;99.90;;;;;;5063921;28;20430;-67
2021/01/24 11:14:06;;;;;;;20.40;12.93;;;4.80;1.00;;;;;;5067361;28;20256;-66
2021/01/24 11:16:31;;;;;;;22.03;13.90;;;5.10;1.00;;;;;;5073489;28;20199;-67
2021/01/24 11:18:56;;;;;;;24.30;15.20;;;5.30;1.00;;;;;;5072120;28;20218;-68
2021/01/24 11:21:22;;;;;;;20.30;14.90;;;5.30;1.00;;;;;;5066840;28;20712;-67
2021/01/24 11:23:48;;;;;;;24.70;15.50;;;5.10;99.90;;;;;;5073052;28;20255;-66
2021/01/24 11:26:13;;;;;;;23.87;15.50;;;5.00;1.00;;;;;;5073663;28;20181;-66
2021/01/24 11:28:39;;;;;;;23.13;14.00;;;5.00;99.90;;;;;;5077299;28;20241;-69
2021/01/24 11:31:04;;;;;;;21.80;14.30;;;5.10;99.90;;;;;;5077169;28;20176;-68
2021/01/24 11:33:31;;;;;;;20.43;14.00;;;5.10;99.90;;;;;;5072963;28;20189;-68
2021/01/24 11:35:57;;;;;;;18.17;12.77;;;4.90;99.90;;;;;;5065837;28;20228;-67
2021/01/24 11:38:24;;;;;;;19.93;13.03;;;5.00;99.90;;;;;;5066174;28;20178;-64
2021/01/24 11:40:56;;;;;;;18.85;13.00;;;5.00;1.00;;;;;;5066340;28;20184;-67
2021/01/24 11:43:22;;;;;;;21.25;14.13;;;5.10;1.00;;;;;;5068649;28;20238;-66
2021/01/24 11:45:48;;;;;;;17.83;12.90;;;5.40;99.90;;;;;;5059245;28;20185;-66
2021/01/24 11:48:14;;;;;;;20.63;13.73;;;5.40;1.00;;;;;;5075890;28;20179;-67
2021/01/24 11:50:40;;;;;;;20.85;13.30;;;5.20;99.90;;;;;;5074871;28;20806;-67
2021/01/24 11:53:06;;;;;;;20.50;13.20;;;5.10;99.90;;;;;;5075693;28;20185;-66
2021/01/24 11:55:31;;;;;;;19.33;13.50;;;5.20;1.00;;;;;;5076445;28;20818;-64
2021/01/24 11:57:57;;;;;;;20.80;13.73;;;5.50;99.90;;;;;;5076326;28;20497;-63
2021/01/24 12:00:27;;;;;;;20.30;12.77;;;5.70;99.90;;;;;;5075307;28;20275;-65
2021/01/24 12:02:53;;;;;;;15.40;12.18;;;5.90;1.00;;;;;;5077162;28;20526;-65
2021/01/24 12:05:18;;;;;;;37.30;21.20;;;6.10;99.90;;;;;;5076593;28;20621;-69
2021/01/24 12:07:44;;;;;;;50.47;27.27;;;6.20;1.00;;;;;;5075787;28;20511;-66
2021/01/24 12:10:11;;;;;;;19.58;13.88;;;6.30;1.00;;;;;;5077518;28;20749;-67
2021/01/24 12:12:45;;;;;;;16.73;12.63;;;6.20;99.90;;;;;;5076437;28;20208;-64
2021/01/24 12:16:24;;;;;;;19.63;13.05;;;6.30;99.90;;;;;;5079509;28;20196;-65
2021/01/24 12:18:51;;;;;;;19.67;12.40;;;6.40;99.90;;;;;;5050516;28;20589;-66
2021/01/24 12:21:18;;;;;;;20.88;12.63;;;6.40;1.00;;;;;;5077133;28;20165;-66
2021/01/24 12:23:50;;;;;;;17.73;12.95;;;6.30;26.40;;;;;;5077413;28;20204;-65
2021/01/24 12:26:17;;;;;;;17.52;13.73;;;6.50;99.90;;;;;;5077889;28;20192;-65
2021/01/24 12:28:49;;;;;;;20.80;13.32;;;6.40;21.00;;;;;;5077821;28;20181;-65
2021/01/24 12:31:18;;;;;;;18.73;11.63;;;6.00;99.90;;;;;;5077532;28;20201;-65
2021/01/24 12:33:44;;;;;;;18.73;12.05;;;5.90;99.90;;;;;;5077144;28;20184;-67
2021/01/24 12:36:10;;;;;;;15.00;10.55;;;6.20;1.00;;;;;;5076100;28;20583;-66
2021/01/24 12:38:39;;;;;;;19.35;12.60;;;6.40;99.90;;;;;;5077079;28;20620;-69
2021/01/24 12:41:12;;;;;;;18.55;11.70;;;6.40;1.00;;;;;;5092639;28;20180;-69
2021/01/24 12:43:55;;;;;;;;;;;;;;;;;;;;;
2021/01/24 12:46:27;;;;;;;17.05;12.70;;;6.70;1.00;;;;;;5077209;28;20185;-66
2021/01/24 12:48:53;;;;;;;19.40;11.70;;;6.60;1.00;;;;;;5075989;28;20533;-69
2021/01/24 12:51:19;;;;;;;19.70;13.30;;;6.50;69.50;;;;;;5075548;28;20615;-68